Time;durP1;ratioP1;P1;durP2;ratioP2;P2;SDS_P1;SDS_P2;PMS_P1;PMS_P2;Temp;Humidity;BMP_temperature;BMP_pressure;BME280_temperature;BME280_humidity;BME280_pressure;Samples;Min_cycle;Max_cycle;Signal;HPM_P1;HPM_P2
2023/05/04 00:00:11;;;;;;;4.60;2.20;;;;;;;12.07;62.99;100267.71;79483;1294;3012159;-61
2023/05/04 00:02:41;;;;;;;6.70;2.30;;;;;;;12.05;63.19;100273.61;78194;1300;3052167;-60
2023/05/04 00:05:09;;;;;;;4.40;1.80;;;;;;;12.03;63.26;100274.62;79397;1300;3013229;-59
2023/05/04 00:07:36;;;;;;;4.30;2.10;;;;;;;12.07;62.85;100279.66;79462;1294;3013089;-60
2023/05/04 00:10:04;;;;;;;3.70;2.10;;;;;;;12.03;62.86;100276.03;78122;1299;3056027;-59
2023/05/04 00:12:32;;;;;;;6.10;2.50;;;;;;;11.99;63.17;100280.80;79517;1295;3011684;-59
2023/05/04 00:14:58;;;;;;;4.30;2.30;;;;;;;11.97;63.08;100283.20;79423;1295;3012895;-61
2023/05/04 00:17:26;;;;;;;7.80;2.80;;;;;;;11.85;63.73;100283.60;78246;1295;3053717;-60
2023/05/04 00:19:53;;;;;;;5.70;2.70;;;;;;;11.61;64.83;100287.67;79374;1300;3013307;-59
2023/05/04 00:22:19;;;;;;;7.20;2.70;;;;;;;11.51;65.54;100287.11;79308;1299;3011460;-59
2023/05/04 00:24:47;;;;;;;9.00;3.20;;;;;;;11.54;65.36;100286.11;78246;1294;3027979;-58
2023/05/04 00:27:14;;;;;;;7.30;3.10;;;;;;;11.29;66.89;100289.69;79315;1295;3018915;-60
2023/05/04 00:29:40;;;;;;;7.10;2.70;;;;;;;11.21;67.29;100287.44;79415;1295;3011794;-60
2023/05/04 00:32:09;;;;;;;5.10;2.40;;;;;;;11.16;67.42;100287.49;77990;1300;3026371;-57
2023/05/04 00:34:36;;;;;;;6.50;3.30;;;;;;;11.01;68.47;100285.98;79443;1298;3013378;-57
2023/05/04 00:37:02;;;;;;;6.00;2.90;;;;;;;10.96;68.58;100282.19;79465;1298;3012595;-60
2023/05/04 00:39:30;;;;;;;6.30;1.90;;;;;;;10.89;68.96;100287.74;78089;1295;3056598;-59
2023/05/04 00:41:57;;;;;;;4.80;2.10;;;;;;;10.90;68.93;100284.94;79340;1295;3012846;-60
2023/05/04 00:44:24;;;;;;;5.40;2.40;;;;;;;10.91;68.73;100290.30;79239;1295;3012971;-60
2023/05/04 00:46:52;;;;;;;5.00;2.50;;;;;;;11.03;67.81;100293.92;78027;1300;3051007;-58
2023/05/04 00:49:20;;;;;;;6.10;2.30;;;;;;;11.01;67.93;100295.63;79255;1300;3012863;-60
2023/05/04 00:51:47;;;;;;;4.70;2.30;;;;;;;10.88;68.88;100302.34;79365;1295;3011670;-58
2023/05/04 00:54:17;;;;;;;5.80;2.30;;;;;;;10.85;68.62;100295.30;78109;1297;3056460;-60
2023/05/04 00:56:44;;;;;;;5.70;2.10;;;;;;;10.87;68.53;100296.46;79515;1296;3013694;-60
2023/05/04 00:59:12;;;;;;;3.80;2.10;;;;;;;10.84;68.73;100293.63;79251;1296;3011764;-60
2023/05/04 01:01:41;;;;;;;5.30;2.40;;;;;;;10.88;68.35;100293.42;78352;1297;3052924;-59
2023/05/04 01:04:07;;;;;;;4.50;2.50;;;;;;;10.87;68.38;100293.12;79556;1298;3020830;-60
2023/05/04 01:07:03;;;;;;;7.20;2.50;;;;;;;10.96;67.59;100288.33;79414;1295;3014089;-60
2023/05/04 01:09:34;;;;;;;5.20;2.10;;;;;;;10.97;67.84;100286.36;78137;1298;3057088;-58
2023/05/04 01:12:11;;;;;;;4.70;2.40;;;;;;;11.02;67.75;100287.83;79462;1295;3013223;-59
2023/05/04 01:14:39;;;;;;;4.40;2.30;;;;;;;10.90;68.34;100289.46;78204;1298;3053712;-57
2023/05/04 01:17:06;;;;;;;4.70;1.90;;;;;;;10.84;68.45;100280.13;79258;1301;3013192;-58
2023/05/04 01:19:33;;;;;;;8.30;2.90;;;;;;;10.81;68.51;100280.80;79393;1298;3013358;-56
2023/05/04 01:22:00;;;;;;;4.50;2.20;;;;;;;10.77;68.56;100278.88;78317;1295;3028542;-58
2023/05/04 01:24:27;;;;;;;5.30;2.50;;;;;;;10.69;69.30;100281.19;79415;1296;3020997;-59
2023/05/04 01:27:01;;;;;;;6.30;2.60;;;;;;;10.68;69.16;100281.76;79418;1295;3011768;-59
2023/05/04 01:29:48;;;;;;;4.40;2.60;;;;;;;10.72;68.72;100282.64;78344;1295;3052497;-60
2023/05/04 01:32:16;;;;;;;7.80;3.00;;;;;;;10.79;68.50;100283.38;78014;1295;3049287;-59
2023/05/04 01:34:43;;;;;;;6.30;3.30;;;;;;;10.77;68.66;100285.58;79340;1301;3011697;-61
2023/05/04 01:37:09;;;;;;;8.40;3.80;;;;;;;10.80;68.36;100281.73;79244;1297;3013290;-60
2023/05/04 01:39:37;;;;;;;8.30;3.30;;;;;;;10.76;68.88;100283.15;78001;1295;3028339;-58
2023/05/04 01:42:06;;;;;;;5.50;2.90;;;;;;;10.79;68.39;100280.20;79434;1295;3012950;-62
2023/05/04 01:44:33;;;;;;;5.80;2.80;;;;;;;10.79;68.41;100287.55;79457;1295;3012730;-62
2023/05/04 01:47:01;;;;;;;5.20;2.70;;;;;;;10.76;68.54;100295.09;78108;1298;3050192;-58
2023/05/04 01:49:27;;;;;;;5.90;2.50;;;;;;;10.80;68.36;100298.04;79315;1300;3018428;-61
2023/05/04 01:51:54;;;;;;;3.70;2.30;;;;;;;10.77;68.39;100292.90;79396;1298;3012689;-61
2023/05/04 01:54:22;;;;;;;6.10;2.30;;;;;;;10.71;68.67;100286.70;78133;1298;3028576;-58
2023/05/04 01:56:49;;;;;;;8.40;2.50;;;;;;;10.61;69.26;100282.98;79519;1295;3013013;-59
2023/05/04 01:59:16;;;;;;;4.40;2.40;;;;;;;10.60;69.38;100287.42;79297;1298;3012205;-58
2023/05/04 02:01:43;;;;;;;9.50;3.00;;;;;;;10.65;69.41;100287.55;78242;1297;3025959;-59
2023/05/04 02:04:10;;;;;;;10.30;3.10;;;;;;;10.69;69.17;100291.35;79447;1300;3013338;-57
2023/05/04 02:06:38;;;;;;;5.30;2.70;;;;;;;10.75;68.88;100292.65;79449;1294;3011673;-59
2023/05/04 02:09:06;;;;;;;4.00;2.70;;;;;;;10.75;68.94;100292.30;78069;1299;3051957;-57
2023/05/04 02:11:33;;;;;;;5.70;2.60;;;;;;;10.72;68.81;100296.80;79567;1295;3014765;-57
2023/05/04 02:14:00;;;;;;;6.30;2.90;;;;;;;10.66;69.51;100292.55;79389;1294;3013598;-60
2023/05/04 02:16:28;;;;;;;4.70;2.60;;;;;;;10.62;69.54;100289.58;78252;1295;3049242;-59
2023/05/04 02:18:54;;;;;;;6.80;2.80;;;;;;;10.64;69.33;100290.58;79469;1298;3012958;-60
2023/05/04 02:21:21;;;;;;;6.10;3.00;;;;;;;10.66;69.13;100285.91;79400;1297;3012964;-60
2023/05/04 02:23:49;;;;;;;4.70;2.50;;;;;;;10.65;69.14;100285.06;78150;1301;3028183;-56
2023/05/04 02:26:16;;;;;;;7.20;2.60;;;;;;;10.66;69.48;100282.41;79520;1294;3013651;-60
2023/05/04 02:28:43;;;;;;;3.20;1.60;;;;;;;10.69;69.85;100288.02;79427;1295;3011711;-60
2023/05/04 02:31:11;;;;;;;3.30;1.90;;;;;;;11.50;68.38;100278.39;78237;1298;3049475;-59
2023/05/04 02:33:37;;;;;;;3.50;2.20;;;;;;;12.18;65.87;100289.29;79461;1298;3018358;-58
2023/05/04 02:36:04;;;;;;;4.80;2.30;;;;;;;12.19;64.88;100280.41;79406;1296;3013602;-61
2023/05/04 02:38:32;;;;;;;6.30;2.50;;;;;;;12.25;64.43;100278.55;78199;1294;3051985;-58
2023/05/04 02:40:59;;;;;;;11.20;2.70;;;;;;;11.94;64.81;100272.98;79410;1294;3012862;-61
2023/05/04 02:43:26;;;;;;;6.80;2.50;;;;;;;11.61;65.13;100267.48;79486;1295;3013381;-57
2023/05/04 02:45:53;;;;;;;4.80;2.20;;;;;;;11.48;65.88;100266.42;78296;1298;3028940;-57
2023/05/04 02:48:20;;;;;;;4.70;2.60;;;;;;;11.40;65.19;100265.08;79583;1293;3018753;-58
2023/05/04 02:50:46;;;;;;;4.90;2.80;;;;;;;11.30;65.94;100259.45;79406;1298;3011874;-60
2023/05/04 02:53:14;;;;;;;6.40;2.80;;;;;;;11.38;64.12;100256.55;78182;1298;3026547;-59
2023/05/04 02:55:41;;;;;;;7.20;3.20;;;;;;;11.46;60.47;100257.05;77528;1295;3012810;-60
2023/05/04 02:58:07;;;;;;;8.10;3.60;;;;;;;11.60;60.00;100255.65;79319;1298;3012921;-58
2023/05/04 03:00:36;;;;;;;5.70;2.60;;;;;;;11.70;59.22;100256.67;78063;1296;3024933;-58
2023/05/04 03:03:03;;;;;;;10.70;3.10;;;;;;;11.80;58.00;100257.02;79496;1297;3013333;-60
2023/05/04 03:05:29;;;;;;;15.50;5.40;;;;;;;11.92;55.24;100261.85;79417;1298;3012200;-60
2023/05/04 03:07:57;;;;;;;15.40;5.80;;;;;;;12.08;53.51;100266.09;78323;1295;3028711;-58
2023/05/04 03:10:23;;;;;;;14.70;5.40;;;;;;;12.21;53.56;100276.44;79442;1294;3013459;-59
2023/05/04 03:12:50;;;;;;;13.00;5.30;;;;;;;12.25;54.99;100284.34;79337;1295;3011603;-56
2023/05/04 03:15:18;;;;;;;9.40;4.70;;;;;;;12.15;57.84;100281.88;78354;1298;3028189;-59
2023/05/04 03:17:45;;;;;;;12.90;5.70;;;;;;;12.14;56.82;100269.13;79646;1298;3013415;-60
2023/05/04 03:20:12;;;;;;;19.60;7.20;;;;;;;12.21;54.70;100258.21;79367;1295;3012934;-59
2023/05/04 03:22:41;;;;;;;20.80;7.10;;;;;;;12.34;53.01;100245.34;78304;1298;3051269;-58
2023/05/04 03:25:08;;;;;;;23.60;8.10;;;;;;;12.48;52.16;100234.77;79479;1295;3013627;-61
2023/05/04 03:27:35;;;;;;;14.90;6.70;;;;;;;12.58;52.53;100229.29;79461;1297;3012678;-58
2023/05/04 03:30:05;;;;;;;20.30;7.50;;;;;;;12.66;52.29;100224.94;78350;1295;3050197;-56
2023/05/04 03:32:34;;;;;;;14.60;6.70;;;;;;;12.75;52.76;100227.42;79538;1295;3011327;-59
2023/05/04 03:35:03;;;;;;;12.20;5.50;;;;;;;12.85;53.68;100226.16;78304;1295;3028035;-60
2023/05/04 03:37:30;;;;;;;10.10;4.10;;;;;;;12.93;56.05;100230.60;79423;1298;3013625;-58
2023/05/04 03:39:57;;;;;;;8.10;4.10;;;;;;;12.93;58.70;100233.44;79362;1295;3013654;-59
2023/05/04 03:42:24;;;;;;;9.10;4.40;;;;;;;12.89;59.69;100239.84;78261;1298;3050282;-60
2023/05/04 03:44:51;;;;;;;11.80;4.70;;;;;;;12.85;60.79;100241.63;79707;1295;3013190;-58
2023/05/04 03:47:18;;;;;;;7.90;3.90;;;;;;;12.77;61.85;100244.19;79384;1296;3013031;-59
2023/05/04 03:49:47;;;;;;;9.50;4.30;;;;;;;12.67;62.80;100246.16;78235;1298;3051661;-57
2023/05/04 03:52:14;;;;;;;12.90;4.70;;;;;;;12.60;63.00;100243.39;79458;1294;3013456;-58
2023/05/04 03:54:40;;;;;;;12.90;5.10;;;;;;;12.54;63.48;100245.50;79439;1296;3011633;-60
2023/05/04 03:57:09;;;;;;;7.90;4.00;;;;;;;12.53;63.08;100245.88;78230;1297;3049079;-57
2023/05/04 03:59:36;;;;;;;14.80;5.10;;;;;;;12.59;61.99;100246.06;79416;1295;3013682;-61
2023/05/04 04:02:04;;;;;;;14.60;4.80;;;;;;;12.65;62.29;100244.33;79417;1295;3013650;-59
2023/05/04 04:04:32;;;;;;;8.80;4.20;;;;;;;12.64;62.85;100247.08;78377;1298;3054098;-59
2023/05/04 04:06:59;;;;;;;10.20;4.90;;;;;;;12.63;61.28;100247.41;79658;1295;3020450;-58
2023/05/04 04:09:27;;;;;;;14.40;6.40;;;;;;;12.67;61.18;100247.74;79308;1295;3011655;-59
2023/05/04 04:11:55;;;;;;;15.40;6.20;;;;;;;12.75;60.65;100243.44;78172;1298;3048870;-59
2023/05/04 04:14:22;;;;;;;10.80;5.00;;;;;;;12.84;59.96;100240.81;79361;1294;3018644;-58
2023/05/04 04:16:48;;;;;;;9.40;4.80;;;;;;;12.94;58.04;100239.84;79627;1298;3011804;-57
2023/05/04 04:19:16;;;;;;;9.90;5.70;;;;;;;13.06;57.60;100243.56;78143;1298;3028926;-61
2023/05/04 04:21:42;;;;;;;12.00;4.50;;;;;;;13.18;56.00;100248.67;79332;1298;3018576;-58
2023/05/04 04:24:10;;;;;;;13.80;4.90;;;;;;;13.31;54.89;100241.94;79540;1298;3012798;-59
2023/05/04 04:26:38;;;;;;;8.40;3.40;;;;;;;13.44;53.46;100242.92;78264;1295;3026853;-59
2023/05/04 04:29:04;;;;;;;8.40;3.60;;;;;;;13.56;51.73;100243.61;79723;1294;3012889;-59
2023/05/04 04:31:32;;;;;;;14.40;4.00;;;;;;;13.71;52.33;100240.80;79392;1295;3011784;-58
2023/05/04 04:34:00;;;;;;;10.90;3.70;;;;;;;13.84;51.89;100237.38;78380;1295;3052556;-59
2023/05/04 04:36:26;;;;;;;9.20;3.70;;;;;;;13.94;53.13;100237.77;79488;1298;3012868;-59
2023/05/04 04:38:53;;;;;;;11.50;4.40;;;;;;;14.02;53.12;100241.49;79425;1297;3012716;-57
2023/05/04 04:41:21;;;;;;;10.70;4.60;;;;;;;14.14;53.37;100240.59;78229;1297;3028535;-59
2023/05/04 04:43:47;;;;;;;11.30;4.80;;;;;;;14.23;53.10;100235.83;79452;1296;3013473;-57
2023/05/04 04:46:14;;;;;;;9.80;4.60;;;;;;;14.31;53.07;100234.73;79486;1295;3011788;-57
2023/05/04 04:48:42;;;;;;;12.10;5.00;;;;;;;14.44;53.09;100240.43;78183;1293;3028729;-59
2023/05/04 04:51:10;;;;;;;10.70;4.50;;;;;;;14.53;52.03;100243.02;79484;1295;3018465;-61
2023/05/04 04:53:37;;;;;;;11.60;4.80;;;;;;;14.64;53.08;100241.11;79370;1295;3011510;-58
2023/05/04 04:56:08;;;;;;;11.30;5.80;;;;;;;14.74;53.82;100237.30;78429;1298;3050064;-59
2023/05/04 04:58:35;;;;;;;13.90;5.60;;;;;;;14.85;54.36;100235.22;79370;1295;3011435;-59
2023/05/04 05:01:04;;;;;;;15.20;5.80;;;;;;;14.92;55.02;100233.98;78857;1298;3011793;-59
2023/05/04 05:03:31;;;;;;;17.60;6.80;;;;;;;14.99;55.84;100233.73;79580;1298;3012813;-60
2023/05/04 05:06:00;;;;;;;14.30;6.90;;;;;;;15.05;55.72;100233.53;79352;1296;3011949;-58
2023/05/04 05:08:28;;;;;;;15.60;6.80;;;;;;;15.14;55.55;100231.83;78086;1295;3050374;-58
2023/05/04 05:10:55;;;;;;;14.30;6.90;;;;;;;15.20;55.62;100234.83;79509;1294;3013351;-58
2023/05/04 05:13:21;;;;;;;16.50;7.30;;;;;;;15.26;54.38;100236.29;79466;1298;3011738;-58
2023/05/04 05:15:49;;;;;;;19.00;8.10;;;;;;;15.37;51.80;100232.07;78209;1296;3026609;-59
2023/05/04 05:18:16;;;;;;;15.30;7.80;;;;;;;15.49;52.67;100230.88;79347;1298;3020656;-59
2023/05/04 05:20:42;;;;;;;16.40;7.50;;;;;;;15.60;53.31;100232.57;79384;1295;3011773;-59
2023/05/04 05:23:10;;;;;;;17.40;7.20;;;;;;;15.71;54.06;100237.33;78111;1295;3025174;-59
2023/05/04 05:25:36;;;;;;;18.50;8.10;;;;;;;15.79;54.37;100241.02;79429;1296;3018843;-60
2023/05/04 05:28:03;;;;;;;19.40;8.30;;;;;;;15.85;54.41;100240.77;79432;1295;3012760;-60
2023/05/04 05:30:32;;;;;;;16.40;8.70;;;;;;;15.95;54.18;100240.98;78305;1298;3049201;-59
2023/05/04 05:32:59;;;;;;;20.00;8.70;;;;;;;16.02;54.56;100236.91;79440;1300;3012935;-59
2023/05/04 05:35:25;;;;;;;18.70;9.70;;;;;;;16.11;54.15;100238.08;79630;1297;3013224;-62
2023/05/04 05:37:54;;;;;;;21.90;8.70;;;;;;;16.20;54.18;100247.11;78277;1298;3025783;-60
2023/05/04 05:40:21;;;;;;;21.80;9.10;;;;;;;16.28;53.80;100250.44;79616;1295;3015543;-60
2023/05/04 05:42:48;;;;;;;16.80;8.60;;;;;;;16.36;53.03;100252.00;79337;1295;3011597;-59
2023/05/04 05:45:16;;;;;;;18.20;8.50;;;;;;;16.47;53.07;100254.39;78061;1295;3049592;-61
2023/05/04 05:47:42;;;;;;;17.90;8.90;;;;;;;16.60;52.73;100249.57;79325;1298;3013105;-60
2023/05/04 05:50:12;;;;;;;18.80;9.30;;;;;;;16.72;51.80;100247.61;79391;1298;3013407;-59
2023/05/04 05:52:40;;;;;;;18.70;9.90;;;;;;;16.81;51.26;100246.76;78243;1295;3051325;-59
2023/05/04 05:55:07;;;;;;;19.60;9.10;;;;;;;16.90;51.35;100242.94;79407;1295;3020545;-59
2023/05/04 05:57:34;;;;;;;17.10;8.90;;;;;;;17.01;51.35;100244.81;79487;1295;3011582;-59
2023/05/04 06:00:03;;;;;;;18.60;9.40;;;;;;;17.11;50.15;100244.73;78286;1298;3050200;-60
2023/05/04 06:02:40;;;;;;;16.90;8.70;;;;;;;17.22;49.78;100247.09;78125;1295;3052546;-61
2023/05/04 06:05:07;;;;;;;16.20;8.20;;;;;;;17.32;47.49;100245.85;79466;1295;3018356;-61
2023/05/04 06:07:34;;;;;;;17.90;8.40;;;;;;;17.39;46.89;100241.05;79488;1295;3011832;-63
2023/05/04 06:10:03;;;;;;;16.90;7.40;;;;;;;17.43;48.38;100246.70;78219;1295;3056880;-59
2023/05/04 06:12:30;;;;;;;16.00;7.10;;;;;;;17.53;48.71;100249.38;79615;1295;3013528;-60
2023/05/04 06:14:56;;;;;;;18.60;7.50;;;;;;;17.61;48.62;100251.20;79350;1295;3013328;-57
2023/05/04 06:17:24;;;;;;;13.50;6.60;;;;;;;17.68;49.12;100248.71;78263;1297;3053179;-60
2023/05/04 06:19:51;;;;;;;13.10;6.50;;;;;;;17.76;49.23;100254.15;79373;1298;3013578;-60
2023/05/04 06:22:17;;;;;;;12.90;6.20;;;;;;;17.82;49.35;100254.17;79495;1295;3011967;-62
2023/05/04 06:24:45;;;;;;;14.20;6.50;;;;;;;17.88;48.68;100258.84;78377;1295;3028985;-59
2023/05/04 06:27:13;;;;;;;18.20;6.30;;;;;;;17.94;48.51;100257.35;79463;1296;3013683;-59
2023/05/04 06:29:40;;;;;;;16.50;6.00;;;;;;;17.97;47.70;100262.45;79459;1295;3012018;-60
2023/05/04 06:32:11;;;;;;;13.60;6.20;;;;;;;18.06;47.86;100261.55;78249;1301;3051663;-60
2023/05/04 06:34:38;;;;;;;13.80;6.70;;;;;;;18.12;47.21;100261.78;79413;1295;3011926;-58
2023/05/04 06:37:05;;;;;;;17.00;6.90;;;;;;;18.14;47.10;100261.80;78165;1295;3026702;-59
2023/05/04 06:39:32;;;;;;;14.50;6.00;;;;;;;18.21;47.24;100259.80;79422;1297;3013428;-56
2023/05/04 06:42:00;;;;;;;16.90;6.50;;;;;;;18.30;46.60;100262.84;79467;1295;3013291;-62
2023/05/04 06:44:29;;;;;;;16.10;6.00;;;;;;;18.32;46.15;100263.73;78227;1295;3053970;-57
2023/05/04 06:46:55;;;;;;;10.80;5.80;;;;;;;18.40;45.66;100265.05;79439;1298;3012996;-61
2023/05/04 06:49:22;;;;;;;16.00;6.00;;;;;;;18.44;45.18;100258.89;79466;1295;3011957;-60
2023/05/04 06:51:50;;;;;;;12.70;6.40;;;;;;;18.49;45.09;100255.25;78175;1296;3028432;-62
2023/05/04 06:54:16;;;;;;;14.50;6.70;;;;;;;18.53;44.51;100256.41;79511;1295;3013307;-59
2023/05/04 06:56:43;;;;;;;14.70;5.70;;;;;;;18.57;44.76;100252.11;79333;1295;3011748;-61
2023/05/04 06:59:12;;;;;;;15.10;5.90;;;;;;;18.63;44.49;100252.74;78425;1298;3027774;-59
2023/05/04 07:01:38;;;;;;;20.20;6.00;;;;;;;18.70;44.61;100253.77;79479;1298;3021086;-59
2023/05/04 07:04:05;;;;;;;10.70;5.40;;;;;;;18.79;44.34;100257.46;79508;1298;3012987;-58
2023/05/04 07:06:34;;;;;;;15.20;6.40;;;;;;;18.89;43.86;100252.00;78324;1298;3067236;-61
2023/05/04 07:09:00;;;;;;;13.60;5.80;;;;;;;18.89;42.70;100255.41;79448;1295;3013382;-58
2023/05/04 07:11:27;;;;;;;14.10;5.90;;;;;;;18.97;43.15;100257.23;79440;1295;3013605;-59
2023/05/04 07:13:55;;;;;;;16.00;5.10;;;;;;;19.10;42.98;100255.47;78179;1298;3026348;-61
2023/05/04 07:16:22;;;;;;;12.10;4.80;;;;;;;19.15;42.31;100248.85;79472;1297;3013713;-58
2023/05/04 07:18:48;;;;;;;12.90;5.40;;;;;;;19.19;42.18;100246.16;79588;1298;3011630;-60
2023/05/04 07:21:16;;;;;;;9.30;4.40;;;;;;;19.18;41.78;100243.73;78265;1295;3028073;-57
2023/05/04 07:23:43;;;;;;;13.20;5.20;;;;;;;19.20;41.65;100246.06;79451;1295;3018715;-58
2023/05/04 07:26:09;;;;;;;19.50;6.80;;;;;;;19.29;41.84;100248.73;79437;1294;3014012;-57
2023/05/04 07:28:37;;;;;;;12.30;5.10;;;;;;;19.39;41.60;100248.70;78260;1295;3028303;-59
2023/05/04 07:31:04;;;;;;;10.00;4.90;;;;;;;19.51;41.04;100247.37;79502;1298;3013704;-62
2023/05/04 07:33:31;;;;;;;13.70;5.90;;;;;;;19.55;40.74;100251.97;79304;1298;3013378;-57
2023/05/04 07:35:59;;;;;;;13.70;5.00;;;;;;;19.60;40.42;100254.96;78286;1298;3026514;-62
2023/05/04 07:38:26;;;;;;;12.60;5.20;;;;;;;19.68;40.16;100256.23;79445;1295;3014083;-59
2023/05/04 07:40:53;;;;;;;14.10;5.60;;;;;;;19.71;40.31;100251.56;79444;1295;3012196;-61
2023/05/04 07:43:22;;;;;;;12.50;5.60;;;;;;;19.71;40.34;100254.06;78158;1295;3053195;-60
2023/05/04 07:45:49;;;;;;;15.70;5.10;;;;;;;19.83;40.82;100251.92;79703;1298;3013336;-58
2023/05/04 07:48:16;;;;;;;12.30;5.80;;;;;;;19.92;40.14;100247.23;79451;1298;3011563;-59
2023/05/04 07:50:45;;;;;;;9.70;4.80;;;;;;;20.00;40.02;100239.95;78233;1296;3028126;-59
2023/05/04 07:53:12;;;;;;;14.80;4.70;;;;;;;20.10;40.36;100244.42;79567;1296;3013672;-58
2023/05/04 07:55:38;;;;;;;12.40;4.80;;;;;;;20.11;38.93;100244.84;79403;1294;3011540;-58
2023/05/04 07:58:06;;;;;;;11.00;4.50;;;;;;;20.02;38.84;100240.19;78286;1297;3052385;-62
2023/05/04 08:00:33;;;;;;;12.40;5.30;;;;;;;20.08;39.30;100239.47;79419;1297;3013725;-60
2023/05/04 08:02:59;;;;;;;11.30;5.50;;;;;;;20.17;39.02;100242.36;79486;1295;3014030;-61
2023/05/04 08:05:27;;;;;;;11.40;4.70;;;;;;;20.25;38.00;100238.31;78283;1295;3028402;-60
2023/05/04 08:07:54;;;;;;;11.20;4.80;;;;;;;20.36;38.38;100233.75;79440;1296;3013482;-59
2023/05/04 08:10:20;;;;;;;12.40;5.00;;;;;;;20.48;38.43;100230.38;79420;1298;3013201;-60
2023/05/04 08:12:48;;;;;;;15.30;5.40;;;;;;;20.57;37.85;100228.72;78514;1298;3028082;-59
2023/05/04 08:15:15;;;;;;;14.10;5.00;;;;;;;20.66;37.94;100235.14;79410;1297;3011627;-58
2023/05/04 08:17:42;;;;;;;12.70;5.20;;;;;;;20.74;37.94;100234.10;79492;1298;3011659;-59
2023/05/04 08:20:11;;;;;;;14.80;5.20;;;;;;;20.76;36.88;100235.19;78156;1298;3068712;-59
2023/05/04 08:22:37;;;;;;;14.10;4.80;;;;;;;20.75;37.16;100226.89;79515;1298;3012753;-59
2023/05/04 08:25:05;;;;;;;7.90;3.20;;;;;;;20.73;36.77;100234.73;79369;1298;3013094;-61
2023/05/04 08:27:33;;;;;;;8.20;3.00;;;;;;;20.66;35.85;100227.92;78490;1292;3053435;-58
2023/05/04 08:29:59;;;;;;;6.60;2.30;;;;;;;20.37;35.71;100236.01;79584;1298;3020846;-58
2023/05/04 08:32:26;;;;;;;9.10;2.60;;;;;;;20.34;35.78;100237.34;79886;1295;3013867;-58
2023/05/04 08:34:54;;;;;;;5.70;2.20;;;;;;;20.40;35.42;100231.60;78319;1298;3025176;-60
2023/05/04 08:37:20;;;;;;;8.80;2.50;;;;;;;20.42;35.15;100234.80;79611;1297;3013602;-58
2023/05/04 08:39:47;;;;;;;6.90;2.30;;;;;;;20.57;35.49;100229.23;79693;1297;3013930;-61
2023/05/04 08:42:28;;;;;;;6.70;2.00;;;;;;;20.63;35.65;100223.13;78326;1292;3026598;-59
2023/05/04 08:44:57;;;;;;;3.60;2.10;;;;;;;20.83;36.34;100221.39;78460;1292;3049221;-59
2023/05/04 08:47:24;;;;;;;7.00;2.40;;;;;;;20.83;34.84;100224.04;79592;1296;3015789;-61
2023/05/04 08:49:55;;;;;;;5.10;2.30;;;;;;;20.98;34.87;100222.52;79685;1292;3013051;-61
2023/05/04 08:52:24;;;;;;;12.10;3.70;;;;;;;21.02;35.25;100221.77;78654;1292;3051320;-61
2023/05/04 08:54:54;;;;;;;7.90;3.30;;;;;;;20.80;35.14;100219.29;80076;1292;3012920;-63
2023/05/04 08:57:23;;;;;;;6.40;1.70;;;;;;;20.79;35.16;100214.05;78471;1299;3053605;-58
2023/05/04 08:59:52;;;;;;;3.80;1.40;;;;;;;21.13;35.09;100211.29;79724;1298;3013436;-61
2023/05/04 09:02:21;;;;;;;4.20;1.10;;;;;;;21.24;34.34;100207.81;79223;1297;3013666;-60
2023/05/04 09:04:49;;;;;;;2.80;1.20;;;;;;;21.42;34.39;100206.16;79729;1298;3014269;-59
2023/05/04 09:07:19;;;;;;;1.90;1.00;;;;;;;21.65;34.15;100197.02;79606;1292;3011984;-61
2023/05/04 09:09:49;;;;;;;4.50;1.60;;;;;;;21.86;33.81;100202.50;78412;1297;3057127;-59
2023/05/04 09:12:16;;;;;;;4.20;2.00;;;;;;;21.72;33.49;100195.41;79628;1292;3012739;-57
2023/05/04 09:14:46;;;;;;;2.30;1.20;;;;;;;21.45;33.85;100197.63;79251;1297;3011854;-60
2023/05/04 09:17:15;;;;;;;4.70;2.30;;;;;;;21.43;34.30;100197.85;79686;1298;3013511;-58
2023/05/04 09:19:43;;;;;;;6.50;1.40;;;;;;;21.65;33.98;100193.30;79579;1298;3011931;-60
2023/05/04 09:22:15;;;;;;;2.10;1.10;;;;;;;21.76;32.94;100190.94;78314;1292;3069173;-59
2023/05/04 09:24:42;;;;;;;2.30;1.20;;;;;;;21.72;32.03;100190.66;79639;1298;3011517;-58
2023/05/04 09:27:12;;;;;;;2.30;1.30;;;;;;;21.62;32.76;100192.97;78437;1298;3056365;-57
2023/05/04 09:29:41;;;;;;;7.00;1.40;;;;;;;21.58;33.25;100194.96;79586;1292;3013124;-61
2023/05/04 09:32:13;;;;;;;4.20;1.20;;;;;;;21.48;34.06;100198.27;79074;1298;3013813;-60
2023/05/04 09:34:48;;;;;;;1.10;0.90;;;;;;;21.35;33.95;100198.02;79573;1297;3013784;-56
2023/05/04 09:37:17;;;;;;;2.00;1.20;;;;;;;21.31;34.34;100184.73;78257;1298;3052908;-60
2023/05/04 09:39:54;;;;;;;5.10;1.30;;;;;;;21.59;34.20;100187.44;79558;1298;3013755;-61
2023/05/04 09:42:23;;;;;;;2.10;1.30;;;;;;;21.97;33.77;100187.51;78286;1297;3050780;-60
2023/05/04 09:45:06;;;;;;;4.10;1.50;;;;;;;22.16;33.30;100188.22;79604;1292;3015011;-57
2023/05/04 09:47:39;;;;;;;2.20;1.40;;;;;;;21.79;33.78;100191.55;78222;1292;3053183;-59
2023/05/04 09:50:16;;;;;;;4.30;1.80;;;;;;;21.61;34.27;100191.28;79563;1293;3013337;-59
2023/05/04 09:52:44;;;;;;;5.60;1.20;;;;;;;21.47;34.51;100184.59;78390;1297;3053370;-59
2023/05/04 09:55:13;;;;;;;4.30;1.70;;;;;;;21.64;34.45;100184.58;79675;1298;3013702;-58
2023/05/04 09:57:43;;;;;;;2.60;1.30;;;;;;;21.68;33.90;100175.38;79036;1293;3011599;-61
2023/05/04 10:00:11;;;;;;;2.00;1.00;;;;;;;21.63;34.52;100174.77;79807;1293;3012810;-58
2023/05/04 10:02:42;;;;;;;2.20;1.30;;;;;;;21.31;34.80;100180.59;79190;1293;3011937;-60
2023/05/04 10:05:11;;;;;;;5.70;2.20;;;;;;;20.97;35.34;100184.50;79616;1292;3015950;-59
2023/05/04 10:07:40;;;;;;;3.60;1.10;;;;;;;20.97;35.17;100183.37;78539;1292;3048991;-57
2023/05/04 10:10:07;;;;;;;2.40;1.00;;;;;;;21.12;34.89;100176.71;79567;1298;3012986;-60
2023/05/04 10:12:34;;;;;;;6.00;1.80;;;;;;;21.24;35.15;100173.92;79564;1297;3013239;-59
2023/05/04 10:15:06;;;;;;;4.80;1.80;;;;;;;21.44;34.79;100170.33;78230;1298;3051653;-60
2023/05/04 10:18:00;;;;;;;5.20;1.60;;;;;;;21.64;34.60;100167.86;79355;1293;3013347;-60
2023/05/04 10:20:53;;;;;;;9.90;1.40;;;;;;;21.88;34.66;100156.67;78272;1292;3049359;-59
2023/05/04 10:23:34;;;;;;;3.70;1.40;;;;;;;22.21;34.74;100155.04;78499;1298;3052377;-58
2023/05/04 10:26:28;;;;;;;3.40;1.10;;;;;;;22.46;35.00;100151.78;78375;1296;3051173;-60
2023/05/04 10:29:20;;;;;;;2.10;1.10;;;;;;;22.54;34.40;100150.50;78463;1297;3052545;-59
2023/05/04 10:31:48;;;;;;;3.10;1.90;;;;;;;22.55;33.99;100151.68;78309;1296;3053015;-60
2023/05/04 10:34:31;;;;;;;5.30;1.30;;;;;;;22.56;33.85;100147.98;79717;1298;3020595;-57
2023/05/04 10:36:59;;;;;;;3.20;1.40;;;;;;;22.71;33.59;100156.33;78349;1292;3056025;-59
2023/05/04 10:39:31;;;;;;;4.40;1.40;;;;;;;22.70;32.99;100152.21;79662;1296;3013507;-59
2023/05/04 10:42:00;;;;;;;4.00;1.30;;;;;;;22.74;32.94;100150.90;78405;1298;3050246;-56
2023/05/04 10:44:56;;;;;;;4.80;1.40;;;;;;;22.81;33.00;100151.39;79593;1296;3013336;-56
2023/05/04 10:47:32;;;;;;;5.30;1.30;;;;;;;22.89;33.03;100155.23;78287;1292;3069388;-58
2023/05/04 10:50:02;;;;;;;7.50;1.70;;;;;;;22.88;32.56;100150.17;79012;1297;3011728;-59
2023/05/04 10:52:46;;;;;;;3.10;1.80;;;;;;;22.89;32.81;100146.73;79674;1293;3011892;-57
2023/05/04 10:55:14;;;;;;;5.70;1.50;;;;;;;22.74;33.35;100146.95;78537;1292;3056482;-57
2023/05/04 10:57:48;;;;;;;4.50;1.70;;;;;;;22.89;33.30;100140.56;79747;1293;3013014;-56
2023/05/04 11:00:17;;;;;;;7.60;2.20;;;;;;;23.04;33.25;100132.13;78284;1293;3052010;-58
2023/05/04 11:02:45;;;;;;;2.50;1.70;;;;;;;23.12;32.94;100129.49;79599;1298;3014746;-60
2023/05/04 11:05:18;;;;;;;5.30;1.20;;;;;;;23.36;32.17;100128.34;79069;1298;3013707;-60
2023/05/04 11:07:46;;;;;;;9.40;1.60;;;;;;;23.32;32.09;100122.44;79695;1298;3011951;-57
2023/05/04 11:10:22;;;;;;;4.20;1.30;;;;;;;23.28;32.57;100114.16;78410;1295;3026720;-57
2023/05/04 11:12:50;;;;;;;4.60;1.30;;;;;;;23.35;32.27;100112.92;78314;1292;3055949;-57